Time;durP1;ratioP1;P1;durP2;ratioP2;P2;SDS_P1;SDS_P2;PMS_P1;PMS_P2;Temp;Humidity;BMP_temperature;BMP_pressure;BME280_temperature;BME280_humidity;BME280_pressure;Samples;Min_cycle;Max_cycle;Signal;HPM_P1;HPM_P2
2022/09/15 00:00:29;;;;;;;;;;;14.50;99.90;;;;;;5098018;28;19931;-60
2022/09/15 00:02:57;;;;;;;;;;;14.50;99.90;;;;;;5071386;28;19936;-60
2022/09/15 00:05:24;;;;;;;;;;;14.50;99.90;;;;;;5103538;28;19927;-60
2022/09/15 00:07:51;;;;;;;;;;;14.50;99.90;;;;;;5107732;28;19924;-60
2022/09/15 00:10:19;;;;;;;;;;;14.50;99.90;;;;;;5109443;28;19936;-60
2022/09/15 00:12:46;;;;;;;;;;;14.50;99.90;;;;;;5107627;28;19923;-60
2022/09/15 00:15:14;;;;;;;;;;;14.50;99.90;;;;;;5082665;28;20166;-60
2022/09/15 00:17:42;;;;;;;;;;;14.40;99.90;;;;;;5093097;28;19931;-60
2022/09/15 00:20:09;;;;;;;;;;;14.40;99.90;;;;;;5109368;28;19924;-61
2022/09/15 00:22:37;;;;;;;;;;;14.50;99.90;;;;;;5091226;28;19924;-61
2022/09/15 00:25:04;;;;;;;;;;;14.40;99.90;;;;;;5107734;28;20283;-60
2022/09/15 00:27:33;;;;;;;;;;;14.40;99.90;;;;;;5108174;28;20531;-60
2022/09/15 00:30:00;;;;;;;;;;;14.40;99.90;;;;;;5106502;28;19924;-60
2022/09/15 00:32:29;;;;;;;;;;;14.40;99.90;;;;;;5109200;28;19931;-59
2022/09/15 00:34:57;;;;;;;;;;;14.40;99.90;;;;;;5119193;28;19930;-60
2022/09/15 00:37:24;;;;;;;;;;;14.40;99.90;;;;;;5090952;28;20401;-60
2022/09/15 00:39:52;;;;;;;;;;;14.40;99.90;;;;;;5106091;28;20520;-59
2022/09/15 00:42:20;;;;;;;;;;;14.30;99.90;;;;;;5074409;28;20393;-59
2022/09/15 00:44:55;;;;;;;;;;;13.60;99.90;;;;;;5106906;28;19924;-60
2022/09/15 00:47:27;;;;;;;;;;;14.30;99.90;;;;;;5109004;28;19931;-59
2022/09/15 00:49:57;;;;;;;;;;;14.30;99.90;;;;;;5094756;28;19931;-59
2022/09/15 00:52:44;;;;;;;;;;;14.30;99.90;;;;;;5109243;28;19924;-59
2022/09/15 00:55:11;;;;;;;;;;;14.30;99.90;;;;;;5109146;28;19955;-59
2022/09/15 00:57:53;;;;;;;;;;;14.30;99.90;;;;;;5108602;28;20255;-59
2022/09/15 01:00:23;;;;;;;;;;;14.20;99.90;;;;;;5101789;28;19924;-60
2022/09/15 01:02:50;;;;;;;;;;;14.20;99.90;;;;;;5086368;28;19928;-60
2022/09/15 01:05:19;;;;;;;;;;;14.20;99.90;;;;;;5083239;28;20299;-60
2022/09/15 01:07:47;;;;;;;;;;;14.20;99.90;;;;;;5107225;28;19931;-60
2022/09/15 01:10:18;;;;;;;;;;;14.10;99.90;;;;;;5106538;28;20292;-59
2022/09/15 01:12:46;;;;;;;;;;;14.20;99.90;;;;;;5108650;28;19924;-60
2022/09/15 01:15:14;;;;;;;;;;;14.10;99.90;;;;;;5105644;28;19928;-61
2022/09/15 01:18:11;;;;;;;;;;;14.10;99.90;;;;;;5089940;28;19924;-60
2022/09/15 01:21:04;;;;;;;;;;;14.10;99.90;;;;;;5106985;28;19934;-58
2022/09/15 01:23:35;;;;;;;;;;;14.10;99.90;;;;;;5104578;28;19924;-58
2022/09/15 01:26:21;;;;;;;;;;;14.10;99.90;;;;;;5107775;28;19942;-58
2022/09/15 01:29:07;;;;;;;;;;;14.10;99.90;;;;;;5105943;28;19923;-58
2022/09/15 01:34:39;;;;;;;;;;;14.10;99.90;;;;;;5091482;28;19924;-58
2022/09/15 01:37:12;;;;;;;;;;;14.00;99.90;;;;;;5091766;28;20318;-58
2022/09/15 01:39:42;;;;;;;;;;;14.00;99.90;;;;;;5099242;28;19931;-60
2022/09/15 01:42:11;;;;;;;;;;;14.00;99.90;;;;;;5111741;28;19946;-60
2022/09/15 01:44:48;;;;;;;;;;;14.00;99.90;;;;;;5111545;28;20295;-61
2022/09/15 01:47:17;;;;;;;;;;;14.00;99.90;;;;;;5108019;28;19931;-60
2022/09/15 01:50:07;;;;;;;;;;;14.00;99.90;;;;;;5110240;28;20291;-60
2022/09/15 01:52:36;;;;;;;;;;;14.00;99.90;;;;;;5104785;28;20378;-60
2022/09/15 01:55:06;;;;;;;;;;;14.00;99.90;;;;;;5130504;27;20430;-60
2022/09/15 01:57:34;;;;;;;;;;;14.00;99.90;;;;;;5112972;27;19934;-60
2022/09/15 02:00:01;;;;;;;;;;;14.00;99.90;;;;;;5114644;28;19931;-59
2022/09/15 02:02:34;;;;;;;;;;;14.00;99.90;;;;;;5114484;28;20282;-60
2022/09/15 02:05:06;;;;;;;;;;;14.00;99.90;;;;;;5114410;28;19931;-60
2022/09/15 02:07:37;;;;;;;;;;;14.00;99.90;;;;;;5113002;28;19928;-59
2022/09/15 02:10:10;;;;;;;;;;;13.90;99.90;;;;;;5114960;28;19948;-60
2022/09/15 02:12:37;;;;;;;;;;;13.90;99.90;;;;;;5114895;28;19931;-60
2022/09/15 02:15:07;;;;;;;;;;;13.90;99.90;;;;;;5113785;28;19924;-60
2022/09/15 02:17:41;;;;;;;;;;;13.90;99.90;;;;;;5112246;28;19923;-60
2022/09/15 02:20:09;;;;;;;;;;;13.90;99.90;;;;;;5112027;28;19923;-61
2022/09/15 02:22:39;;;;;;;;;;;13.90;99.90;;;;;;5113606;28;19931;-60
2022/09/15 02:25:11;;;;;;;;;;;13.90;99.90;;;;;;5130730;27;19924;-60
2022/09/15 02:27:44;;;;;;;;;;;13.80;99.90;;;;;;5123254;27;19924;-58
2022/09/15 02:30:13;;;;;;;;;;;13.80;99.90;;;;;;5091035;28;20005;-59
2022/09/15 02:32:46;;;;;;;;;;;13.80;99.90;;;;;;5114395;28;19931;-58
2022/09/15 02:35:13;;;;;;;;;;;13.80;99.90;;;;;;5113971;28;19946;-60
2022/09/15 02:37:41;;;;;;;;;;;13.80;99.90;;;;;;5113580;28;19923;-60
2022/09/15 02:40:09;;;;;;;;;;;13.80;99.90;;;;;;5114191;28;19924;-60
2022/09/15 02:42:38;;;;;;;;;;;13.80;99.90;;;;;;5114148;28;20367;-60
2022/09/15 02:45:05;;;;;;;;;;;13.80;99.90;;;;;;5112576;28;19931;-60
2022/09/15 02:47:33;;;;;;;;;;;13.80;99.90;;;;;;5112719;28;20355;-59
2022/09/15 02:50:00;;;;;;;;;;;13.80;99.90;;;;;;5112946;28;19932;-60
2022/09/15 02:52:27;;;;;;;;;;;13.80;99.90;;;;;;5113558;28;20501;-60
2022/09/15 02:54:55;;;;;;;;;;;13.80;99.90;;;;;;5128267;27;19982;-60
2022/09/15 02:57:22;;;;;;;;;;;13.70;99.90;;;;;;5095719;28;19932;-60
2022/09/15 03:02:36;;;;;;;;;;;13.70;99.90;;;;;;5113588;28;19946;-60
2022/09/15 03:05:03;;;;;;;;;;;13.70;99.90;;;;;;5112924;28;19947;-60
2022/09/15 03:07:31;;;;;;;;;;;13.70;99.90;;;;;;5113838;28;20306;-58
2022/09/15 03:09:58;;;;;;;;;;;13.70;99.90;;;;;;5094926;28;19931;-60
2022/09/15 03:12:25;;;;;;;;;;;13.70;99.90;;;;;;5113740;28;19923;-61
2022/09/15 03:14:53;;;;;;;;;;;13.70;99.90;;;;;;5111495;28;19928;-60
2022/09/15 03:17:20;;;;;;;;;;;13.70;99.90;;;;;;5113753;28;20394;-61
2022/09/15 03:19:49;;;;;;;;;;;13.70;99.90;;;;;;5113730;28;19930;-60
2022/09/15 03:22:16;;;;;;;;;;;13.60;99.90;;;;;;5113617;28;20294;-60
2022/09/15 03:24:44;;;;;;;;;;;13.60;99.90;;;;;;5125695;27;19928;-58
2022/09/15 03:27:11;;;;;;;;;;;13.60;99.90;;;;;;5113080;28;19931;-60
2022/09/15 03:29:39;;;;;;;;;;;13.60;99.90;;;;;;5113429;28;20406;-58
2022/09/15 03:32:06;;;;;;;;;;;13.50;99.90;;;;;;5113190;28;19924;-58
2022/09/15 03:34:33;;;;;;;;;;;13.50;99.90;;;;;;5113169;28;19950;-58
2022/09/15 03:37:01;;;;;;;;;;;13.50;99.90;;;;;;5093792;28;19938;-58
2022/09/15 03:39:28;;;;;;;;;;;13.50;99.90;;;;;;5112037;28;20280;-58
2022/09/15 03:41:55;;;;;;;;;;;13.50;99.90;;;;;;5113148;28;19923;-58
2022/09/15 03:44:23;;;;;;;;;;;13.50;99.90;;;;;;5112879;28;19931;-60
2022/09/15 03:46:50;;;;;;;;;;;13.50;99.90;;;;;;5112230;28;20532;-60
2022/09/15 03:49:18;;;;;;;;;;;13.50;99.90;;;;;;5112600;28;19931;-61
2022/09/15 03:51:45;;;;;;;;;;;13.50;99.90;;;;;;5112806;28;19951;-58
2022/09/15 03:54:12;;;;;;;;;;;13.50;99.90;;;;;;5120257;27;19930;-58
2022/09/15 03:56:40;;;;;;;;;;;13.50;99.90;;;;;;5113691;27;20295;-58
2022/09/15 03:59:08;;;;;;;;;;;13.40;99.90;;;;;;5112655;28;19924;-58
2022/09/15 04:01:35;;;;;;;;;;;13.40;99.90;;;;;;5111553;28;19924;-58
2022/09/15 04:04:02;;;;;;;;;;;13.40;99.90;;;;;;5112633;28;19924;-58
2022/09/15 04:06:30;;;;;;;;;;;13.40;99.90;;;;;;5112033;28;19924;-58
2022/09/15 04:08:59;;;;;;;;;;;13.40;99.90;;;;;;5112833;28;19931;-58
2022/09/15 04:11:26;;;;;;;;;;;13.40;99.90;;;;;;5112158;28;19931;-60
2022/09/15 04:13:53;;;;;;;;;;;13.40;99.90;;;;;;5110922;28;19928;-59
2022/09/15 04:16:22;;;;;;;;;;;13.40;99.90;;;;;;5111886;28;20326;-58
2022/09/15 04:18:51;;;;;;;;;;;13.40;99.90;;;;;;5094383;28;19931;-60
2022/09/15 04:21:20;;;;;;;;;;;13.40;99.90;;;;;;5094125;28;19925;-60
2022/09/15 04:23:47;;;;;;;;;;;13.40;99.90;;;;;;5117150;27;20286;-59
2022/09/15 04:26:21;;;;;;;;;;;13.30;99.90;;;;;;5118056;27;19954;-59
2022/09/15 04:28:48;;;;;;;;;;;13.30;99.90;;;;;;5093874;28;19924;-59
2022/09/15 04:31:16;;;;;;;;;;;13.30;99.90;;;;;;5112324;28;20370;-58
2022/09/15 04:33:44;;;;;;;;;;;13.30;99.90;;;;;;5112358;28;19927;-60
2022/09/15 04:36:13;;;;;;;;;;;13.30;99.90;;;;;;5110552;28;19924;-60
2022/09/15 04:38:41;;;;;;;;;;;13.30;99.90;;;;;;5111787;28;20367;-60
2022/09/15 04:41:09;;;;;;;;;;;13.30;99.90;;;;;;5111208;28;19930;-60
2022/09/15 04:43:36;;;;;;;;;;;13.20;99.90;;;;;;5110037;28;19923;-60
2022/09/15 04:46:04;;;;;;;;;;;13.20;99.90;;;;;;5110917;28;19930;-60
2022/09/15 04:48:31;;;;;;;;;;;13.20;99.90;;;;;;5102052;28;19924;-59
2022/09/15 04:50:59;;;;;;;;;;;13.20;99.90;;;;;;5088992;28;19924;-60
2022/09/15 04:53:27;;;;;;;;;;;13.10;99.90;;;;;;5091298;28;19924;-60
2022/09/15 04:56:02;;;;;;;;;;;13.10;99.90;;;;;;5114456;28;19927;-59
2022/09/15 04:58:29;;;;;;;;;;;13.10;99.90;;;;;;5101583;28;19923;-59
2022/09/15 05:00:57;;;;;;;;;;;13.00;99.90;;;;;;5128891;28;19930;-60
2022/09/15 05:03:24;;;;;;;;;;;13.00;99.90;;;;;;5094565;28;21087;-59
2022/09/15 05:05:52;;;;;;;;;;;12.90;99.90;;;;;;5074471;28;19931;-61
2022/09/15 05:08:19;;;;;;;;;;;12.90;99.90;;;;;;5087158;28;20523;-59
2022/09/15 05:10:47;;;;;;;;;;;12.80;99.90;;;;;;5126470;28;19923;-59
2022/09/15 05:13:14;;;;;;;;;;;12.80;99.90;;;;;;5095045;28;19951;-59
2022/09/15 05:15:41;;;;;;;;;;;12.80;99.90;;;;;;5104007;28;19924;-59
2022/09/15 05:18:09;;;;;;;;;;;12.80;99.90;;;;;;5105243;28;19924;-60
2022/09/15 05:20:36;;;;;;;;;;;12.80;99.90;;;;;;5097377;28;20261;-59
2022/09/15 05:23:04;;;;;;;;;;;12.80;99.90;;;;;;5098768;28;19983;-60
2022/09/15 05:25:32;;;;;;;;;;;12.80;99.90;;;;;;5110428;28;19928;-59
2022/09/15 05:27:59;;;;;;;;;;;12.80;99.90;;;;;;5094030;28;19954;-60
2022/09/15 05:30:26;;;;;;;;;;;12.80;99.90;;;;;;5111567;28;19928;-59
2022/09/15 05:33:10;;;;;;;;;;;12.80;99.90;;;;;;5107393;28;20287;-60
2022/09/15 05:35:38;;;;;;;;;;;12.80;99.90;;;;;;5106459;28;19924;-61
2022/09/15 05:38:05;;;;;;;;;;;12.80;99.90;;;;;;5094059;28;19928;-61
2022/09/15 05:40:32;;;;;;;;;;;12.70;99.90;;;;;;5110104;28;19928;-59
2022/09/15 05:43:00;;;;;;;;;;;12.70;99.90;;;;;;5109308;28;19934;-61
2022/09/15 05:45:27;;;;;;;;;;;12.70;99.90;;;;;;5112095;28;19955;-60
2022/09/15 05:47:55;;;;;;;;;;;12.70;99.90;;;;;;5093703;28;19953;-60
2022/09/15 05:50:22;;;;;;;;;;;12.70;99.90;;;;;;5109983;28;19928;-58
2022/09/15 05:52:50;;;;;;;;;;;12.70;99.90;;;;;;5098865;27;19927;-58
2022/09/15 05:55:17;;;;;;;;;;;12.70;99.90;;;;;;5129365;27;19930;-61
2022/09/15 05:57:45;;;;;;;;;;;12.70;99.90;;;;;;5108262;28;20382;-61
2022/09/15 06:00:12;;;;;;;;;;;12.70;99.90;;;;;;5111006;28;19928;-59
2022/09/15 06:02:40;;;;;;;;;;;12.70;99.90;;;;;;5090430;27;19939;-60
2022/09/15 06:05:08;;;;;;;;;;;12.70;99.90;;;;;;5111810;28;19935;-59
2022/09/15 06:07:35;;;;;;;;;;;12.70;99.90;;;;;;5105760;28;19924;-58
2022/09/15 06:10:05;;;;;;;;;;;12.70;99.90;;;;;;5111471;28;19934;-59
2022/09/15 06:12:32;;;;;;;;;;;12.70;99.90;;;;;;5116467;27;20309;-60
2022/09/15 06:15:00;;;;;;;;;;;12.70;99.90;;;;;;5113913;27;20779;-58
2022/09/15 06:17:30;;;;;;;;;;;12.70;99.90;;;;;;5128333;27;19924;-59
2022/09/15 06:19:57;;;;;;;;;;;12.70;99.90;;;;;;5108164;28;19924;-60
2022/09/15 06:22:26;;;;;;;;;;;12.80;99.90;;;;;;5104558;27;19935;-60
2022/09/15 06:24:54;;;;;;;;;;;12.80;99.90;;;;;;5110393;28;20306;-61
2022/09/15 06:27:21;;;;;;;;;;;12.80;99.90;;;;;;5111222;28;19924;-59
2022/09/15 06:29:48;;;;;;;;;;;12.80;99.90;;;;;;5111393;28;19924;-58
2022/09/15 06:32:16;;;;;;;;;;;12.80;99.90;;;;;;5109000;28;20614;-59
2022/09/15 06:34:44;;;;;;;;;;;12.90;99.90;;;;;;5111373;28;19932;-58
2022/09/15 06:37:11;;;;;;;;;;;12.90;99.90;;;;;;5102604;27;19928;-58
2022/09/15 06:39:38;;;;;;;;;;;13.00;99.90;;;;;;5110120;28;19946;-58
2022/09/15 06:42:06;;;;;;;;;;;13.00;99.90;;;;;;5110187;28;20378;-58
2022/09/15 06:44:35;;;;;;;;;;;13.00;99.90;;;;;;5092982;28;20402;-60
2022/09/15 06:47:04;;;;;;;;;;;13.00;99.90;;;;;;5110728;28;19930;-60
2022/09/15 06:49:31;;;;;;;;;;;13.10;99.90;;;;;;5104831;28;19935;-60
2022/09/15 06:52:01;;;;;;;;;;;13.10;99.90;;;;;;5096618;27;19924;-60
2022/09/15 06:54:28;;;;;;;;;;;13.10;99.90;;;;;;5120884;27;19931;-60
2022/09/15 06:56:56;;;;;;;;;;;13.10;99.90;;;;;;5127912;27;20565;-59
2022/09/15 06:59:23;;;;;;;;;;;13.20;99.90;;;;;;5092211;28;19931;-59
2022/09/15 07:01:52;;;;;;;;;;;13.20;99.90;;;;;;5107594;28;19931;-60
2022/09/15 07:04:20;;;;;;;;;;;13.30;99.90;;;;;;5102004;28;19930;-61
2022/09/15 07:06:49;;;;;;;;;;;13.30;99.90;;;;;;5085574;28;20299;-61
2022/09/15 07:09:16;;;;;;;;;;;13.30;99.90;;;;;;5105485;28;19935;-61
2022/09/15 07:11:44;;;;;;;;;;;13.40;99.90;;;;;;5107881;28;19924;-60
2022/09/15 07:14:11;;;;;;;;;;;13.40;99.90;;;;;;5091100;28;20271;-61
2022/09/15 07:16:38;;;;;;;;;;;13.50;99.90;;;;;;5108492;28;19924;-62
2022/09/15 07:19:06;;;;;;;;;;;13.50;99.90;;;;;;5109938;28;19928;-61
2022/09/15 07:21:34;;;;;;;;;;;13.60;99.90;;;;;;5101958;28;19924;-60
2022/09/15 07:24:01;;;;;;;;;;;13.60;99.90;;;;;;5120071;27;19923;-61
2022/09/15 07:26:34;;;;;;;;;;;13.60;99.90;;;;;;5116327;27;19931;-59
2022/09/15 07:29:03;;;;;;;;;;;13.70;99.90;;;;;;5074113;28;20401;-61
2022/09/15 07:31:32;;;;;;;;;;;13.80;99.90;;;;;;5090800;28;19931;-59
2022/09/15 07:34:00;;;;;;;;;;;13.80;99.90;;;;;;5122338;27;19930;-61
2022/09/15 07:36:28;;;;;;;;;;;13.80;99.90;;;;;;5119011;27;19935;-59
2022/09/15 07:38:55;;;;;;;;;;;13.90;99.90;;;;;;5103334;28;19942;-59
2022/09/15 07:41:24;;;;;;;;;;;13.90;99.90;;;;;;5108084;28;19931;-60
2022/09/15 07:43:52;;;;;;;;;;;14.00;99.90;;;;;;5109387;28;20299;-59
2022/09/15 07:46:21;;;;;;;;;;;14.00;99.90;;;;;;5109919;28;19924;-61
2022/09/15 07:48:50;;;;;;;;;;;14.00;99.90;;;;;;5123088;27;19930;-61
2022/09/15 07:51:18;;;;;;;;;;;14.10;99.90;;;;;;5100110;28;19928;-58
2022/09/15 07:53:46;;;;;;;;;;;14.00;99.90;;;;;;5109284;27;19923;-60
2022/09/15 07:56:14;;;;;;;;;;;14.10;99.90;;;;;;5107439;27;19924;-60
2022/09/15 07:58:42;;;;;;;;;;;14.20;99.90;;;;;;5108260;28;19927;-62
2022/09/15 08:01:10;;;;;;;;;;;14.20;99.90;;;;;;5094364;28;19924;-61
2022/09/15 08:03:39;;;;;;;;;;;14.20;99.90;;;;;;5103947;28;19931;-60
2022/09/15 08:06:07;;;;;;;;;;;14.20;99.90;;;;;;5107062;28;19931;-58
2022/09/15 08:08:36;;;;;;;;;;;14.20;99.90;;;;;;5103167;28;19935;-61
2022/09/15 08:11:05;;;;;;;;;;;14.10;99.90;;;;;;5089209;28;20367;-62
2022/09/15 08:13:32;;;;;;;;;;;14.10;99.90;;;;;;5102290;28;19931;-59
2022/09/15 08:16:03;;;;;;;;;;;14.00;99.90;;;;;;5088864;28;20008;-59
2022/09/15 08:18:32;;;;;;;;;;;14.00;99.90;;;;;;5106151;28;19927;-59
2022/09/15 08:21:02;;;;;;;;;;;14.00;99.90;;;;;;5084493;28;19924;-58
2022/09/15 08:23:30;;;;;;;;;;;14.10;99.90;;;;;;5096467;28;19924;-59
2022/09/15 08:25:58;;;;;;;;;;;14.10;99.90;;;;;;5097626;28;19924;-60
2022/09/15 08:28:25;;;;;;;;;;;14.10;99.90;;;;;;5106280;28;19930;-59
2022/09/15 08:31:06;;;;;;;;;;;14.20;99.90;;;;;;5105353;28;19934;-60
2022/09/15 08:33:34;;;;;;;;;;;14.20;99.90;;;;;;5080697;28;19923;-59
2022/09/15 08:36:04;;;;;;;;;;;14.30;99.90;;;;;;5107215;28;20440;-60
2022/09/15 08:38:32;;;;;;;;;;;14.30;99.90;;;;;;5075102;28;20323;-58
2022/09/15 08:41:01;;;;;;;;;;;14.40;99.90;;;;;;5089936;28;19924;-59
2022/09/15 08:43:31;;;;;;;;;;;14.50;99.90;;;;;;5088829;28;19924;-60
2022/09/15 08:46:01;;;;;;;;;;;14.60;99.90;;;;;;5085836;28;19931;-61
2022/09/15 08:48:32;;;;;;;;;;;14.60;99.90;;;;;;5086042;28;19924;-62
2022/09/15 08:51:02;;;;;;;;;;;14.70;99.90;;;;;;5107289;28;19923;-62
2022/09/15 08:53:32;;;;;;;;;;;14.70;99.90;;;;;;5113297;28;19935;-60
2022/09/15 08:56:03;;;;;;;;;;;14.70;99.90;;;;;;5107332;28;20393;-60
2022/09/15 08:58:36;;;;;;;;;;;14.70;99.90;;;;;;5083828;28;19923;-59
2022/09/15 09:01:09;;;;;;;;;;;14.70;99.90;;;;;;5098120;28;20380;-61
2022/09/15 09:03:40;;;;;;;;;;;14.80;99.90;;;;;;5088509;28;19924;-58
2022/09/15 09:06:26;;;;;;;;;;;14.90;99.90;;;;;;5093533;28;19924;-58
2022/09/15 09:09:12;;;;;;;;;;;15.10;99.90;;;;;;5108829;28;20294;-57
2022/09/15 09:11:48;;;;;;;;;;;15.20;99.90;;;;;;5095646;28;19924;-58
2022/09/15 09:14:21;;;;;;;;;;;15.40;99.90;;;;;;5117299;27;19931;-62
2022/09/15 09:16:52;;;;;;;;;;;15.60;99.90;;;;;;5109747;28;20298;-61
2022/09/15 09:19:38;;;;;;;;;;;15.70;99.90;;;;;;5094246;28;19928;-60
2022/09/15 09:22:10;;;;;;;;;;;15.80;99.90;;;;;;5112577;28;19923;-59
2022/09/15 09:24:41;;;;;;;;;;;15.90;99.90;;;;;;5113582;27;19934;-60
2022/09/15 09:27:14;;;;;;;;;;;16.00;99.90;;;;;;5107595;28;19924;-61
2022/09/15 09:29:43;;;;;;;;;;;16.10;99.90;;;;;;5111411;28;19924;-61
2022/09/15 09:32:19;;;;;;;;;;;16.20;99.90;;;;;;5110437;28;20418;-61
2022/09/15 09:34:54;;;;;;;;;;;16.40;99.90;;;;;;5105342;28;19939;-59
2022/09/15 09:37:23;;;;;;;;;;;16.50;99.90;;;;;;5095929;28;20379;-58
2022/09/15 09:39:50;;;;;;;;;;;16.60;99.90;;;;;;5090206;28;19940;-59
2022/09/15 09:42:22;;;;;;;;;;;16.70;99.90;;;;;;5093575;28;19928;-58
2022/09/15 09:44:50;;;;;;;;;;;16.70;99.90;;;;;;5106366;28;19927;-62
2022/09/15 09:47:17;;;;;;;;;;;16.70;99.90;;;;;;5104627;28;19950;-62
2022/09/15 09:49:48;;;;;;;;;;;16.70;99.90;;;;;;5108788;28;19924;-62
2022/09/15 09:52:35;;;;;;;;;;;16.70;99.90;;;;;;5098664;28;19924;-63
2022/09/15 09:55:15;;;;;;;;;;;16.70;99.90;;;;;;5095247;27;19928;-63
2022/09/15 09:57:43;;;;;;;;;;;16.60;99.90;;;;;;5095687;28;19928;-60
2022/09/15 10:00:28;;;;;;;;;;;16.60;99.90;;;;;;5093250;28;20379;-62
2022/09/15 10:02:56;;;;;;;;;;;16.50;99.90;;;;;;5091104;27;20279;-62
2022/09/15 10:05:24;;;;;;;;;;;16.50;99.90;;;;;;5088127;28;19931;-60
2022/09/15 10:07:51;;;;;;;;;;;16.60;99.90;;;;;;5109830;27;19923;-62
2022/09/15 10:10:22;;;;;;;;;;;16.70;99.90;;;;;;5105900;27;20371;-60
2022/09/15 10:12:55;;;;;;;;;;;16.80;99.90;;;;;;5104434;28;19924;-61
2022/09/15 10:15:24;;;;;;;;;;;17.00;99.90;;;;;;5108482;28;19931;-62
2022/09/15 10:17:52;;;;;;;;;;;17.20;99.90;;;;;;5097270;28;19930;-62
2022/09/15 10:20:44;;;;;;;;;;;17.40;99.90;;;;;;5087955;28;19928;-62
2022/09/15 10:23:17;;;;;;;;;;;17.60;99.90;;;;;;5102997;27;19927;-61
2022/09/15 10:25:45;;;;;;;;;;;17.70;99.90;;;;;;5116744;27;19923;-61
2022/09/15 10:28:28;;;;;;;;;;;17.70;99.90;;;;;;5102252;27;19928;-59
2022/09/15 10:31:00;;;;;;;;;;;17.80;99.90;;;;;;5103771;28;19928;-61
2022/09/15 10:33:29;;;;;;;;;;;17.80;99.90;;;;;;5105792;27;19931;-61
2022/09/15 10:36:02;;;;;;;;;;;17.90;99.90;;;;;;5087575;28;19924;-61
2022/09/15 10:38:35;;;;;;;;;;;17.90;99.90;;;;;;5080458;28;19927;-61
2022/09/15 10:41:21;;;;;;;;;;;18.00;99.90;;;;;;5104728;28;19924;-62
2022/09/15 10:44:03;;;;;;;;;;;18.10;99.90;;;;;;5097668;28;20103;-61
2022/09/15 10:46:30;;;;;;;;;;;18.10;99.90;;;;;;5084952;28;19925;-62
2022/09/15 10:49:09;;;;;;;;;;;18.10;99.90;;;;;;5101789;28;19928;-60
2022/09/15 10:51:46;;;;;;;;;;;18.00;99.90;;;;;;5098687;28;19941;-60
2022/09/15 10:54:24;;;;;;;;;;;17.90;99.90;;;;;;5109162;27;20531;-61
2022/09/15 10:56:56;;;;;;;;;;;18.10;99.90;;;;;;5120175;27;19947;-62
2022/09/15 10:59:55;;;;;;;;;;;18.40;99.90;;;;;;5078473;28;19928;-59
2022/09/15 11:02:25;;;;;;;;;;;18.60;99.90;;;;;;5092881;27;19923;-60
2022/09/15 11:05:12;;;;;;;;;;;18.90;99.90;;;;;;5105480;27;19927;-61
2022/09/15 11:07:43;;;;;;;;;;;18.90;99.90;;;;;;5090704;28;19950;-61
2022/09/15 11:10:19;;;;;;;;;;;18.90;99.90;;;;;;5105986;28;19934;-61
2022/09/15 11:12:51;;;;;;;;;;;18.70;99.90;;;;;;5082602;28;19924;-60
2022/09/15 11:15:22;;;;;;;;;;;18.50;99.90;;;;;;5106764;28;19932;-61
2022/09/15 11:18:19;;;;;;;;;;;18.40;99.90;;;;;;5088133;28;19928;-63
2022/09/15 11:20:49;;;;;;;;;;;18.30;99.90;;;;;;5034262;28;20284;-61
2022/09/15 11:23:19;;;;;;;;;;;18.40;99.90;;;;;;5112715;27;19930;-60
2022/09/15 11:25:53;;;;;;;;;;;18.40;99.90;;;;;;5127686;27;20429;-60
2022/09/15 11:28:24;;;;;;;;;;;18.60;99.90;;;;;;5113150;27;19934;-61
2022/09/15 11:31:23;;;;;;;;;;;18.70;99.90;;;;;;5093678;28;20218;-59
2022/09/15 11:33:59;;;;;;;;;;;18.80;99.90;;;;;;5085078;28;19924;-60
2022/09/15 11:36:45;;;;;;;;;;;18.90;99.90;;;;;;5106885;28;20362;-61
2022/09/15 11:39:17;;;;;;;;;;;18.80;99.90;;;;;;5105687;28;20282;-60
2022/09/15 11:42:03;;;;;;;;;;;18.70;99.90;;;;;;5085220;28;19928;-61
2022/09/15 11:44:35;;;;;;;;;;;18.60;99.90;;;;;;5098778;28;19928;-60
2022/09/15 11:47:21;;;;;;;;;;;18.50;99.80;;;;;;5102903;28;19938;-64
2022/09/15 11:49:54;;;;;;;;;;;18.40;99.90;;;;;;5088439;28;19924;-62
2022/09/15 11:52:27;;;;;;;;;;;18.20;99.70;;;;;;5094063;28;19931;-61
2022/09/15 11:54:54;;;;;;;;;;;18.10;99.90;;;;;;5103890;27;19928;-59
2022/09/15 11:57:25;;;;;;;;;;;18.00;99.90;;;;;;5102848;28;19932;-62
2022/09/15 11:59:53;;;;;;;;;;;17.80;99.90;;;;;;5085018;28;19924;-62
2022/09/15 12:02:41;;;;;;;;;;;17.70;99.90;;;;;;5105021;28;19938;-59
2022/09/15 12:05:14;;;;;;;;;;;17.60;99.90;;;;;;5093483;28;19951;-61
2022/09/15 12:07:46;;;;;;;;;;;17.50;99.90;;;;;;5089019;28;19928;-59
2022/09/15 12:10:21;;;;;;;;;;;17.50;99.90;;;;;;5099452;28;20303;-60
2022/09/15 12:12:50;;;;;;;;;;;17.50;99.90;;;;;;5103910;27;19928;-61
2022/09/15 12:15:18;;;;;;;;;;;17.60;99.90;;;;;;5103649;27;20379;-61
2022/09/15 12:17:53;;;;;;;;;;;17.80;99.90;;;;;;5109540;27;19923;-61
2022/09/15 12:20:20;;;;;;;;;;;18.00;99.90;;;;;;5115498;27;19924;-62
2022/09/15 12:22:53;;;;;;;;;;;18.10;99.90;;;;;;5092978;27;20286;-61
2022/09/15 12:25:23;;;;;;;;;;;18.20;99.60;;;;;;5115053;27;20493;-59
2022/09/15 12:28:09;;;;;;;;;;;18.20;99.60;;;;;;5092616;28;19935;-61
2022/09/15 12:30:38;;;;;;;;;;;18.20;99.50;;;;;;5085241;28;20307;-60
2022/09/15 12:33:24;;;;;;;;;;;18.20;99.40;;;;;;5092920;28;20509;-62
2022/09/15 12:35:52;;;;;;;;;;;18.20;98.90;;;;;;5104511;28;19935;-61
2022/09/15 12:38:21;;;;;;;;;;;18.10;99.30;;;;;;5103192;28;20302;-62
2022/09/15 12:40:58;;;;;;;;;;;18.00;99.60;;;;;;5104724;28;19928;-60
2022/09/15 12:43:30;;;;;;;;;;;17.90;99.70;;;;;;5102874;28;19930;-61
2022/09/15 12:45:59;;;;;;;;;;;17.90;99.70;;;;;;5101411;28;19928;-59
2022/09/15 12:48:31;;;;;;;;;;;17.90;99.40;;;;;;5103713;28;19931;-63
2022/09/15 12:51:04;;;;;;;;;;;17.90;98.80;;;;;;5086194;28;20378;-58
2022/09/15 12:53:33;;;;;;;;;;;18.00;98.80;;;;;;5111320;28;19928;-60
2022/09/15 12:56:04;;;;;;;;;;;18.20;98.80;;;;;;5104200;28;19928;-58
2022/09/15 12:58:36;;;;;;;;;;;18.40;98.50;;;;;;5106479;28;19928;-59
2022/09/15 13:01:22;;;;;;;;;;;18.50;97.80;;;;;;5086626;28;19931;-59
2022/09/15 13:03:50;;;;;;;;;;;18.60;97.70;;;;;;5096660;28;19923;-59
2022/09/15 13:06:20;;;;;;;;;;;18.90;97.30;;;;;;5103555;28;19923;-60
2022/09/15 13:08:51;;;;;;;;;;;19.20;96.70;;;;;;5118702;28;19928;-62
2022/09/15 13:11:33;;;;;;;;;;;19.80;97.70;;;;;;5110769;28;19942;-63
2022/09/15 13:14:07;;;;;;;;;;;20.60;96.70;;;;;;5108479;28;19927;-60
2022/09/15 13:16:38;;;;;;;;;;;20.90;95.00;;;;;;5066478;28;19924;-59
2022/09/15 13:19:24;;;;;;;;;;;20.90;93.80;;;;;;5100343;28;19930;-62
2022/09/15 13:21:57;;;;;;;;;;;20.70;93.70;;;;;;5104111;28;19929;-60
2022/09/15 13:24:46;;;;;;;;;;;20.30;93.80;;;;;;5120887;28;19923;-61
2022/09/15 13:27:15;;;;;;;;;;;20.00;94.00;;;;;;5087021;28;19928;-61
2022/09/15 13:29:48;;;;;;;;;;;19.70;94.50;;;;;;5096856;28;19924;-59
2022/09/15 13:32:24;;;;;;;;;;;19.40;94.90;;;;;;5082434;28;20397;-60
2022/09/15 13:35:00;;;;;;;;;;;19.10;94.70;;;;;;5100107;28;19931;-60
2022/09/15 13:37:51;;;;;;;;;;;18.90;94.10;;;;;;5094097;28;19924;-61
2022/09/15 13:40:53;;;;;;;;;;;18.80;95.20;;;;;;5095101;28;19924;-61
2022/09/15 13:43:44;;;;;;;;;;;19.30;96.40;;;;;;5103276;28;19927;-63
2022/09/15 13:46:11;;;;;;;;;;;19.70;93.90;;;;;;5066290;28;19928;-62
2022/09/15 13:48:55;;;;;;;;;;;19.70;93.10;;;;;;5084773;28;20874;-61
2022/09/15 13:51:24;;;;;;;;;;;19.60;93.40;;;;;;5107342;28;19924;-60
2022/09/15 13:53:55;;;;;;;;;;;19.60;93.60;;;;;;5078168;27;19930;-63
2022/09/15 13:56:31;;;;;;;;;;;19.70;93.00;;;;;;5111878;27;19924;-59
2022/09/15 13:59:02;;;;;;;;;;;19.60;92.10;;;;;;5089268;28;19924;-61
2022/09/15 14:01:38;;;;;;;;;;;19.50;92.50;;;;;;5107441;28;19947;-60
2022/09/15 14:04:10;;;;;;;;;;;19.50;92.60;;;;;;5106171;27;19927;-59
2022/09/15 14:06:40;;;;;;;;;;;19.40;92.80;;;;;;5107184;28;19928;-59
2022/09/15 14:09:11;;;;;;;;;;;19.30;93.50;;;;;;5106809;28;19924;-59
2022/09/15 14:11:40;;;;;;;;;;;19.20;93.60;;;;;;5088381;28;19935;-59
2022/09/15 14:14:30;;;;;;;;;;;19.10;93.40;;;;;;5114583;27;20295;-59
2022/09/15 14:16:58;;;;;;;;;;;19.10;93.60;;;;;;5097341;28;19945;-59
2022/09/15 14:19:30;;;;;;;;;;;19.00;93.80;;;;;;5092544;28;19928;-59
2022/09/15 14:21:58;;;;;;;;;;;18.90;93.40;;;;;;5103851;28;20295;-58
2022/09/15 14:24:27;;;;;;;;;;;18.70;93.80;;;;;;5118560;27;19928;-58
2022/09/15 14:26:57;;;;;;;;;;;18.60;94.20;;;;;;5106307;28;19935;-59
2022/09/15 14:29:25;;;;;;;;;;;18.40;93.90;;;;;;5050628;28;20046;-59
2022/09/15 14:31:58;;;;;;;;;;;18.20;94.10;;;;;;5069904;28;19924;-59
2022/09/15 14:34:28;;;;;;;;;;;18.10;94.40;;;;;;5105259;28;20083;-59
2022/09/15 14:37:06;;;;;;;;;;;18.00;94.60;;;;;;5106414;28;19924;-60
2022/09/15 14:39:36;;;;;;;;;;;17.80;94.20;;;;;;5088622;28;19924;-60
2022/09/15 14:42:08;;;;;;;;;;;17.70;95.00;;;;;;5104978;28;19924;-62
2022/09/15 14:44:35;;;;;;;;;;;17.80;95.30;;;;;;5105684;27;20640;-61